createdAt,value
2018-07-26T00:00:40.516Z,13.30
2018-07-26T00:03:08.718Z,12.93
2018-07-26T00:05:36.675Z,12.53
2018-07-26T00:08:04.871Z,12.00
2018-07-26T00:10:33.087Z,13.20
2018-07-26T00:13:01.305Z,11.73
2018-07-26T00:15:29.470Z,13.07
2018-07-26T00:17:57.627Z,11.43
2018-07-26T00:20:25.792Z,12.17
2018-07-26T00:22:54.073Z,12.53
2018-07-26T00:25:22.295Z,12.57
2018-07-26T00:27:50.528Z,10.80
2018-07-26T00:30:18.697Z,10.50
2018-07-26T00:32:46.859Z,10.70
2018-07-26T00:35:15.081Z,11.90
2018-07-26T00:37:43.263Z,12.10
2018-07-26T00:40:11.508Z,12.50
2018-07-26T00:42:39.691Z,12.20
2018-07-26T00:45:08.136Z,11.73
2018-07-26T00:47:36.508Z,12.47
2018-07-26T00:50:04.732Z,12.63
2018-07-26T00:52:32.901Z,12.43
2018-07-26T00:55:01.079Z,12.80
2018-07-26T00:57:29.240Z,11.17
2018-07-26T00:59:57.399Z,13.23
2018-07-26T01:02:25.555Z,12.93
2018-07-26T01:04:53.777Z,12.60
2018-07-26T01:07:22.004Z,14.43
2018-07-26T01:09:50.224Z,13.30
2018-07-26T01:12:18.404Z,11.93
2018-07-26T01:14:46.586Z,13.83
2018-07-26T01:17:14.834Z,13.07
2018-07-26T01:19:43.139Z,14.83
2018-07-26T01:22:11.351Z,10.63
2018-07-26T01:24:39.745Z,13.47
2018-07-26T01:27:07.940Z,13.57
2018-07-26T01:29:36.100Z,13.53
2018-07-26T01:32:04.320Z,14.23
2018-07-26T01:34:32.508Z,13.13
2018-07-26T01:37:00.692Z,14.40
2018-07-26T01:39:28.835Z,13.37
2018-07-26T01:41:57.024Z,14.63
2018-07-26T01:44:25.893Z,14.10
2018-07-26T01:46:54.136Z,14.73
2018-07-26T01:49:22.349Z,16.00
2018-07-26T01:51:50.523Z,14.40
2018-07-26T01:54:18.752Z,16.53
2018-07-26T01:56:46.948Z,15.77
2018-07-26T01:59:15.126Z,14.50
2018-07-26T02:01:43.349Z,15.67
2018-07-26T02:04:11.538Z,16.07
2018-07-26T02:06:39.700Z,16.10
2018-07-26T02:09:09.057Z,15.60
2018-07-26T02:11:37.268Z,15.37
2018-07-26T02:14:05.498Z,14.40
2018-07-26T02:16:33.777Z,16.47
2018-07-26T02:19:01.955Z,15.60
2018-07-26T02:21:30.170Z,15.67
2018-07-26T02:23:58.368Z,13.77
2018-07-26T02:26:26.572Z,14.20
2018-07-26T02:28:54.789Z,16.90
2018-07-26T02:31:23.034Z,14.50
2018-07-26T02:33:51.250Z,16.73
2018-07-26T02:36:19.411Z,14.23
2018-07-26T02:38:47.590Z,14.17
2018-07-26T02:41:15.812Z,14.47
2018-07-26T02:43:44.086Z,15.53
2018-07-26T02:46:12.309Z,14.93
2018-07-26T02:48:40.520Z,15.27
2018-07-26T02:51:08.724Z,14.00
2018-07-26T02:53:36.923Z,16.17
2018-07-26T02:56:05.180Z,15.77
2018-07-26T02:58:33.387Z,15.30
2018-07-26T03:01:01.605Z,13.93
2018-07-26T03:03:29.814Z,14.93
2018-07-26T03:05:57.996Z,15.70
2018-07-26T03:08:26.217Z,16.10
2018-07-26T03:10:54.412Z,17.00
2018-07-26T03:13:22.619Z,14.57
2018-07-26T03:15:50.764Z,15.97
2018-07-26T03:18:18.937Z,16.60
2018-07-26T03:20:47.239Z,15.57
2018-07-26T03:23:15.378Z,16.70
2018-07-26T03:25:43.738Z,15.63
2018-07-26T03:28:11.944Z,16.30
2018-07-26T03:30:40.122Z,16.17
2018-07-26T03:33:08.330Z,15.70
2018-07-26T03:35:36.518Z,14.83
2018-07-26T03:38:04.796Z,16.80
2018-07-26T03:40:32.951Z,17.27
2018-07-26T03:43:01.142Z,16.67
2018-07-26T03:45:29.343Z,16.30
2018-07-26T03:47:57.536Z,16.23
2018-07-26T03:50:25.802Z,16.63
2018-07-26T03:52:53.989Z,15.97
2018-07-26T03:55:22.159Z,15.90
2018-07-26T03:57:50.582Z,16.03
2018-07-26T04:00:18.703Z,15.30
2018-07-26T04:02:46.877Z,15.70
2018-07-26T04:05:15.095Z,14.63
2018-07-26T04:07:43.390Z,15.63
2018-07-26T04:10:11.572Z,14.43
2018-07-26T04:12:39.779Z,15.17
2018-07-26T04:15:08.020Z,13.77
2018-07-26T04:17:36.224Z,14.30
2018-07-26T04:20:04.538Z,14.33
2018-07-26T04:22:32.736Z,14.83
2018-07-26T04:25:00.935Z,15.80
2018-07-26T04:27:29.145Z,14.50
2018-07-26T04:29:57.309Z,14.33
2018-07-26T04:32:25.284Z,14.60
2018-07-26T04:34:53.460Z,16.70
2018-07-26T04:37:21.679Z,15.57
2018-07-26T04:39:49.861Z,14.30
2018-07-26T04:42:18.035Z,13.83
2018-07-26T04:44:46.239Z,14.13
2018-07-26T04:47:14.404Z,14.20
2018-07-26T04:49:42.597Z,14.00
2018-07-26T04:52:10.800Z,12.60
2018-07-26T04:54:39.022Z,11.37
2018-07-26T04:57:07.130Z,13.10
2018-07-26T04:59:35.460Z,12.47
2018-07-26T05:02:03.763Z,10.73
2018-07-26T05:04:32.134Z,12.67
2018-07-26T05:07:00.308Z,13.10
2018-07-26T05:09:28.476Z,11.60
2018-07-26T05:11:56.640Z,12.40
2018-07-26T05:14:24.856Z,11.80
2018-07-26T05:16:53.240Z,12.50
2018-07-26T05:19:21.459Z,10.83
2018-07-26T05:21:49.660Z,10.27
2018-07-26T05:24:17.859Z,9.80
2018-07-26T05:26:46.305Z,10.27
2018-07-26T05:29:14.491Z,9.57
2018-07-26T05:31:42.535Z,8.87
2018-07-26T05:34:10.788Z,10.10
2018-07-26T05:36:38.929Z,8.53
2018-07-26T05:39:08.812Z,9.50
2018-07-26T05:41:37.259Z,9.70
2018-07-26T05:44:05.538Z,8.03
2018-07-26T05:46:33.762Z,8.70
2018-07-26T05:49:01.992Z,11.00
2018-07-26T05:51:30.518Z,7.93
2018-07-26T05:53:58.663Z,8.30
2018-07-26T05:56:26.795Z,7.90
2018-07-26T05:58:54.967Z,8.53
2018-07-26T06:01:23.932Z,8.67
2018-07-26T06:03:52.163Z,7.27
2018-07-26T06:06:20.304Z,6.60
2018-07-26T06:08:48.428Z,8.47
2018-07-26T06:11:16.581Z,7.10
2018-07-26T06:13:44.738Z,8.30
2018-07-26T06:16:12.865Z,6.70
2018-07-26T06:18:40.997Z,7.57
2018-07-26T06:21:09.164Z,7.30
2018-07-26T06:23:37.383Z,6.57
2018-07-26T06:26:05.600Z,7.40
2018-07-26T06:28:33.735Z,5.90
2018-07-26T06:31:01.992Z,6.90
2018-07-26T06:33:30.146Z,6.17
2018-07-26T06:35:58.252Z,6.90
2018-07-26T06:38:26.399Z,6.57
2018-07-26T06:40:54.543Z,7.00
2018-07-26T06:43:22.823Z,5.50
2018-07-26T06:45:50.991Z,5.83
2018-07-26T06:48:19.211Z,6.03
2018-07-26T06:50:47.357Z,4.93
2018-07-26T06:53:15.569Z,5.80
2018-07-26T06:55:43.756Z,5.10
2018-07-26T06:58:11.978Z,5.37
2018-07-26T07:00:40.168Z,5.70
2018-07-26T07:03:08.416Z,5.43
2018-07-26T07:05:36.594Z,4.90
2018-07-26T07:08:04.762Z,4.70
2018-07-26T07:10:33.169Z,4.10
2018-07-26T07:13:01.340Z,5.93
2018-07-26T07:15:29.524Z,5.47
2018-07-26T07:17:57.690Z,5.90
2018-07-26T07:20:25.861Z,5.57
2018-07-26T07:22:54.023Z,4.30
2018-07-26T07:25:22.412Z,4.47
2018-07-26T07:27:50.632Z,4.47
2018-07-26T07:30:18.856Z,4.10
2018-07-26T07:32:47.018Z,3.60
2018-07-26T07:35:15.231Z,4.53
2018-07-26T07:37:43.703Z,3.97
2018-07-26T07:40:12.924Z,3.63
2018-07-26T07:42:41.104Z,5.47
2018-07-26T07:45:09.751Z,2.77
2018-07-26T07:47:40.178Z,3.77
2018-07-26T07:50:08.357Z,3.20
2018-07-26T07:52:36.806Z,3.43
2018-07-26T07:55:05.317Z,2.77
2018-07-26T07:57:35.876Z,2.70
2018-07-26T08:00:05.448Z,2.40
2018-07-26T08:02:33.622Z,2.40
2018-07-26T08:05:01.796Z,3.07
2018-07-26T08:07:29.961Z,2.90
2018-07-26T08:09:58.146Z,5.17
2018-07-26T08:12:26.333Z,2.50
2018-07-26T08:14:54.518Z,2.67
2018-07-26T08:17:22.688Z,2.87
2018-07-26T08:19:50.887Z,2.70
2018-07-26T08:22:19.048Z,3.00
2018-07-26T08:24:46.934Z,3.47
2018-07-26T08:27:15.129Z,3.43
2018-07-26T08:29:43.312Z,4.07
2018-07-26T08:32:11.895Z,3.70
2018-07-26T08:34:40.885Z,3.27
2018-07-26T08:37:09.086Z,3.20
2018-07-26T08:39:37.320Z,3.43
2018-07-26T08:42:05.536Z,3.50
2018-07-26T08:44:33.775Z,3.43
2018-07-26T08:47:01.939Z,3.63
2018-07-26T08:49:30.091Z,3.90
2018-07-26T08:51:58.315Z,5.67
2018-07-26T08:54:26.617Z,4.53
2018-07-26T08:56:54.845Z,4.00
2018-07-26T08:59:23.050Z,4.03
2018-07-26T09:01:51.421Z,3.83
2018-07-26T09:04:19.627Z,4.73
2018-07-26T09:06:47.840Z,3.90
2018-07-26T09:09:16.048Z,4.37
2018-07-26T09:11:44.191Z,3.90
2018-07-26T09:14:12.372Z,4.10
2018-07-26T09:16:40.647Z,3.93
2018-07-26T09:19:08.964Z,5.20
2018-07-26T09:21:37.212Z,4.30
2018-07-26T09:24:05.423Z,5.23
2018-07-26T09:26:33.635Z,4.13
2018-07-26T09:29:02.006Z,3.80
2018-07-26T09:31:30.125Z,3.90
2018-07-26T09:33:58.312Z,4.37
2018-07-26T09:36:26.661Z,4.10
2018-07-26T09:38:54.868Z,4.50
2018-07-26T09:41:23.100Z,4.77
2018-07-26T09:43:51.424Z,4.20
2018-07-26T09:46:19.614Z,4.27
2018-07-26T09:48:47.853Z,3.80
2018-07-26T09:51:16.011Z,4.67
2018-07-26T09:53:44.215Z,4.53
2018-07-26T09:56:12.411Z,4.53
2018-07-26T09:58:40.588Z,4.07
2018-07-26T10:01:14.080Z,3.80
2018-07-26T10:03:42.312Z,4.20
2018-07-26T10:06:10.579Z,3.93
2018-07-26T10:08:38.808Z,3.87
2018-07-26T10:11:07.396Z,3.43
2018-07-26T10:13:35.572Z,4.27
2018-07-26T10:16:03.740Z,3.60
2018-07-26T10:18:31.895Z,5.83
2018-07-26T10:21:00.116Z,4.70
2018-07-26T10:23:28.279Z,5.97
2018-07-26T10:25:56.486Z,4.33
2018-07-26T10:28:24.675Z,4.77
2018-07-26T10:30:52.940Z,3.97
2018-07-26T10:33:21.112Z,4.93
2018-07-26T10:35:49.295Z,3.70
2018-07-26T10:38:17.557Z,4.13
2018-07-26T10:40:45.763Z,5.00
2018-07-26T10:43:13.915Z,4.83
2018-07-26T10:45:42.192Z,3.73
2018-07-26T10:48:10.364Z,7.07
2018-07-26T10:50:38.560Z,4.83
2018-07-26T10:53:06.758Z,4.57
2018-07-26T10:55:34.983Z,4.77
2018-07-26T10:58:04.567Z,4.60
2018-07-26T11:00:32.899Z,4.77
2018-07-26T11:03:01.146Z,4.50
2018-07-26T11:05:29.391Z,4.43
2018-07-26T11:07:57.600Z,4.27
2018-07-26T11:10:25.805Z,4.40
2018-07-26T11:12:54.181Z,4.00
2018-07-26T11:15:26.513Z,4.17
2018-07-26T11:17:54.839Z,4.90
2018-07-26T11:20:23.097Z,4.20
2018-07-26T11:22:51.291Z,5.53
2018-07-26T11:25:19.550Z,5.63
2018-07-26T11:27:47.845Z,4.47
2018-07-26T11:30:16.067Z,4.53
2018-07-26T11:32:44.332Z,4.00
2018-07-26T11:35:12.907Z,4.97
2018-07-26T11:37:41.134Z,4.67
2018-07-26T11:40:09.456Z,4.90
2018-07-26T11:42:37.637Z,4.60
2018-07-26T11:45:06.487Z,4.47
2018-07-26T11:47:34.726Z,5.00
2018-07-26T11:50:03.186Z,5.10
2018-07-26T11:52:31.300Z,5.30
2018-07-26T11:54:59.473Z,5.00
2018-07-26T11:57:28.270Z,5.93
2018-07-26T11:59:56.428Z,5.00
2018-07-26T12:02:24.640Z,5.27
2018-07-26T12:04:52.824Z,4.60
2018-07-26T12:07:21.023Z,5.23
2018-07-26T12:09:49.168Z,6.03
2018-07-26T12:12:17.286Z,5.93
2018-07-26T12:14:45.403Z,5.13
2018-07-26T12:17:13.552Z,6.30
2018-07-26T12:19:41.721Z,5.90
2018-07-26T12:22:09.815Z,5.23
2018-07-26T12:24:38.081Z,6.27
2018-07-26T12:27:07.252Z,5.17
2018-07-26T12:29:35.635Z,5.10
2018-07-26T12:32:03.801Z,5.63
2018-07-26T12:34:31.996Z,4.87
2018-07-26T12:37:00.167Z,5.93
2018-07-26T12:39:28.356Z,5.97
2018-07-26T12:41:56.582Z,5.77
2018-07-26T12:44:24.777Z,6.47
2018-07-26T12:46:52.992Z,6.10
2018-07-26T12:49:21.188Z,6.07
2018-07-26T12:51:49.359Z,5.70
2018-07-26T12:54:17.540Z,5.73
2018-07-26T12:56:45.716Z,5.90
2018-07-26T12:59:13.980Z,6.40
2018-07-26T13:01:42.162Z,5.67
2018-07-26T13:04:11.309Z,5.97
2018-07-26T13:06:39.448Z,6.10
2018-07-26T13:09:08.560Z,5.90
2018-07-26T13:11:36.777Z,5.53
2018-07-26T13:14:06.000Z,6.17
2018-07-26T13:16:34.206Z,5.70
2018-07-26T13:19:02.467Z,6.47
2018-07-26T13:21:30.737Z,6.30
2018-07-26T13:23:58.896Z,6.20
2018-07-26T13:26:27.119Z,6.50
2018-07-26T13:28:55.356Z,5.57
2018-07-26T13:31:23.506Z,6.13
2018-07-26T13:33:51.662Z,6.57
2018-07-26T13:36:19.803Z,6.77
2018-07-26T13:38:47.972Z,5.90
2018-07-26T13:41:16.407Z,6.17
2018-07-26T13:43:44.608Z,5.10
2018-07-26T13:46:12.860Z,5.40
2018-07-26T13:48:40.940Z,5.53
2018-07-26T13:51:09.216Z,7.50
2018-07-26T13:53:37.433Z,6.27
2018-07-26T13:56:05.726Z,6.10
2018-07-26T13:58:33.975Z,6.33
2018-07-26T14:01:02.052Z,5.70
2018-07-26T14:03:30.219Z,6.03
2018-07-26T14:05:58.503Z,6.07
2018-07-26T14:08:26.672Z,6.43
2018-07-26T14:10:55.227Z,6.47
2018-07-26T14:13:23.414Z,6.27
2018-07-26T14:15:51.687Z,6.10
2018-07-26T14:18:19.872Z,6.90
2018-07-26T14:20:48.118Z,6.13
2018-07-26T14:23:21.719Z,6.23
2018-07-26T14:25:49.856Z,8.40
2018-07-26T14:28:18.029Z,6.03
2018-07-26T14:30:46.238Z,7.53
2018-07-26T14:33:14.461Z,6.73
2018-07-26T14:35:42.708Z,8.30
2018-07-26T14:38:10.929Z,7.90
2018-07-26T14:40:39.131Z,7.70
2018-07-26T14:43:07.331Z,7.83
2018-07-26T14:45:35.525Z,8.00
2018-07-26T14:48:03.785Z,8.20
2018-07-26T14:50:31.979Z,7.73
2018-07-26T14:53:00.165Z,8.30
2018-07-26T14:55:28.424Z,7.30
2018-07-26T14:57:56.603Z,7.70
2018-07-26T15:00:24.764Z,7.33
2018-07-26T15:02:53.128Z,7.70
2018-07-26T15:05:21.419Z,8.63
2018-07-26T15:07:49.630Z,7.70
2018-07-26T15:10:17.778Z,8.37
2018-07-26T15:12:45.956Z,8.23
2018-07-26T15:15:14.128Z,7.97
2018-07-26T15:17:42.363Z,7.60
2018-07-26T15:20:10.543Z,7.70
2018-07-26T15:22:38.713Z,7.80
2018-07-26T15:25:06.919Z,7.37
2018-07-26T15:27:35.109Z,7.03
2018-07-26T15:30:03.284Z,8.70
2018-07-26T15:32:31.485Z,7.87
2018-07-26T15:34:59.636Z,7.73
2018-07-26T15:37:27.877Z,8.20
2018-07-26T15:39:56.016Z,7.20
2018-07-26T15:42:24.218Z,7.97
2018-07-26T15:44:52.408Z,8.03
2018-07-26T15:47:20.583Z,9.70
2018-07-26T15:49:48.932Z,9.43
2018-07-26T15:52:17.065Z,8.40
2018-07-26T15:54:45.240Z,8.03
2018-07-26T15:57:13.408Z,8.33
2018-07-26T15:59:41.563Z,7.13
2018-07-26T16:02:10.117Z,8.03
2018-07-26T16:04:38.278Z,8.30
2018-07-26T16:07:06.416Z,8.27
2018-07-26T16:09:34.557Z,7.77
2018-07-26T16:12:02.745Z,8.37
2018-07-26T16:14:30.904Z,7.30
2018-07-26T16:16:59.056Z,8.00
2018-07-26T16:19:27.261Z,7.77
2018-07-26T16:21:55.456Z,8.77
2018-07-26T16:24:23.604Z,8.47
2018-07-26T16:27:18.859Z,7.60
2018-07-26T16:29:47.228Z,8.40
2018-07-26T16:32:15.436Z,7.93
2018-07-26T16:34:43.610Z,8.57
2018-07-26T16:37:11.755Z,8.43
2018-07-26T16:39:39.899Z,7.53
2018-07-26T16:42:08.274Z,8.37
2018-07-26T16:44:36.191Z,8.00
2018-07-26T16:47:04.447Z,9.03
2018-07-26T16:49:32.731Z,8.23
2018-07-26T16:52:01.267Z,8.57
2018-07-26T16:54:29.485Z,7.67
2018-07-26T16:56:57.736Z,7.07
2018-07-26T16:59:25.948Z,7.73
2018-07-26T17:01:54.169Z,8.10
2018-07-26T17:04:22.469Z,8.90
2018-07-26T17:06:50.804Z,7.83
2018-07-26T17:09:19.082Z,7.73
2018-07-26T17:11:47.263Z,7.80
2018-07-26T17:14:15.465Z,8.07
2018-07-26T17:16:43.691Z,7.90
2018-07-26T17:19:11.927Z,8.20
2018-07-26T17:21:40.210Z,7.30
2018-07-26T17:24:08.391Z,8.20
2018-07-26T17:26:36.645Z,7.70
2018-07-26T17:29:05.440Z,7.90
2018-07-26T17:31:33.616Z,8.73
2018-07-26T17:34:01.776Z,7.50
2018-07-26T17:36:39.358Z,7.80
2018-07-26T17:39:08.994Z,10.23
2018-07-26T17:41:37.365Z,9.20
2018-07-26T17:44:05.908Z,8.20
2018-07-26T17:46:34.431Z,8.07
2018-07-26T17:49:03.528Z,8.03
2018-07-26T17:51:32.166Z,8.17
2018-07-26T17:54:00.485Z,7.83
2018-07-26T17:56:28.936Z,8.53
2018-07-26T17:58:57.487Z,8.53
2018-07-26T18:01:25.621Z,8.50
2018-07-26T18:03:54.015Z,7.73
2018-07-26T18:06:22.768Z,7.70
2018-07-26T18:08:51.230Z,7.90
2018-07-26T18:11:19.516Z,7.40
2018-07-26T18:13:48.829Z,8.60
2018-07-26T18:16:18.100Z,8.27
2018-07-26T18:18:46.350Z,8.80
2018-07-26T18:21:16.741Z,7.87
2018-07-26T18:23:46.992Z,8.10
2018-07-26T18:26:16.338Z,8.70
2018-07-26T18:28:46.307Z,8.10
2018-07-26T18:31:16.311Z,8.07
2018-07-26T18:33:44.609Z,8.67
2018-07-26T18:36:13.983Z,8.50
2018-07-26T18:38:43.303Z,8.13
2018-07-26T18:41:11.616Z,8.17
2018-07-26T18:43:39.823Z,9.03
2018-07-26T18:46:08.035Z,8.70
2018-07-26T18:48:36.343Z,9.27
2018-07-26T18:51:04.526Z,10.17
2018-07-26T18:53:32.773Z,8.10
2018-07-26T18:56:01.197Z,8.70
2018-07-26T18:58:29.476Z,9.77
2018-07-26T19:00:57.639Z,8.83
2018-07-26T19:03:25.588Z,8.70
2018-07-26T19:05:53.793Z,7.90
2018-07-26T19:08:21.935Z,8.67
2018-07-26T19:10:50.088Z,8.27
2018-07-26T19:13:18.355Z,8.20
2018-07-26T19:15:46.488Z,7.93
2018-07-26T19:18:14.622Z,8.17
2018-07-26T19:20:42.833Z,8.00
2018-07-26T19:23:15.009Z,8.90
2018-07-26T19:25:43.219Z,7.97
2018-07-26T19:28:11.414Z,8.70
2018-07-26T19:30:42.298Z,9.50
2018-07-26T19:33:10.473Z,8.00
2018-07-26T19:35:38.664Z,8.80
2018-07-26T19:38:06.808Z,8.70
2018-07-26T19:40:34.981Z,7.70
2018-07-26T19:43:03.305Z,7.40
2018-07-26T19:45:31.520Z,8.23
2018-07-26T19:47:59.688Z,7.83
2018-07-26T19:50:27.844Z,8.87
2018-07-26T19:52:56.100Z,8.03
2018-07-26T19:55:24.371Z,8.50
2018-07-26T19:57:52.590Z,8.07
2018-07-26T20:00:20.741Z,9.27
2018-07-26T20:02:48.912Z,7.80
2018-07-26T20:05:17.072Z,8.57
2018-07-26T20:07:45.289Z,9.87
2018-07-26T20:10:13.798Z,8.43
2018-07-26T20:12:42.294Z,8.77
2018-07-26T20:15:10.536Z,9.27
2018-07-26T20:17:38.762Z,7.57
2018-07-26T20:20:08.773Z,8.37
2018-07-26T20:22:37.034Z,8.73
2018-07-26T20:25:05.514Z,8.63
2018-07-26T20:27:33.802Z,9.20
2018-07-26T20:30:02.245Z,9.10
2018-07-26T20:32:30.437Z,8.23
2018-07-26T20:34:58.705Z,13.93
2018-07-26T20:37:26.903Z,9.57
2018-07-26T20:39:55.173Z,9.30
2018-07-26T20:42:23.408Z,9.50
2018-07-26T20:44:51.677Z,9.20
2018-07-26T20:47:19.995Z,9.30
2018-07-26T20:49:48.147Z,9.10
2018-07-26T20:52:16.312Z,9.30
2018-07-26T20:54:44.757Z,9.07
2018-07-26T20:57:12.965Z,9.67
2018-07-26T20:59:41.201Z,11.20
2018-07-26T21:02:18.817Z,9.77
2018-07-26T21:04:46.921Z,10.23
2018-07-26T21:07:15.071Z,9.27
2018-07-26T21:09:43.204Z,8.57
2018-07-26T21:12:11.383Z,10.83
2018-07-26T21:14:39.505Z,8.97
2018-07-26T21:17:07.657Z,9.20
2018-07-26T21:19:35.803Z,8.17
2018-07-26T21:22:04.024Z,10.13
2018-07-26T21:24:32.160Z,10.13
2018-07-26T21:27:00.468Z,10.63
2018-07-26T21:29:28.619Z,9.37
2018-07-26T21:31:56.791Z,11.20
2018-07-26T21:34:24.960Z,9.60
2018-07-26T21:36:53.148Z,11.27
2018-07-26T21:39:21.377Z,9.73
2018-07-26T21:41:49.716Z,9.70
2018-07-26T21:44:17.693Z,9.00
2018-07-26T21:46:45.931Z,10.40
2018-07-26T21:49:14.224Z,9.20
2018-07-26T21:51:42.537Z,10.47
2018-07-26T21:54:11.264Z,11.30
2018-07-26T21:56:39.560Z,9.33
2018-07-26T21:59:08.511Z,10.40
2018-07-26T22:01:36.727Z,9.83
2018-07-26T22:04:05.159Z,10.50
2018-07-26T22:06:33.331Z,10.80
2018-07-26T22:09:01.672Z,14.90
2018-07-26T22:11:29.840Z,10.27
2018-07-26T22:13:58.616Z,11.10
2018-07-26T22:16:26.765Z,10.13
2018-07-26T22:18:54.871Z,9.73
2018-07-26T22:21:22.990Z,10.13
2018-07-26T22:23:51.164Z,12.20
2018-07-26T22:26:19.351Z,10.30
2018-07-26T22:28:47.526Z,10.87
2018-07-26T22:31:15.656Z,11.07
2018-07-26T22:33:43.823Z,11.40
2018-07-26T22:36:11.988Z,8.97
2018-07-26T22:38:40.151Z,11.10
2018-07-26T22:41:08.499Z,10.50
2018-07-26T22:43:36.622Z,10.07
2018-07-26T22:46:04.764Z,12.77
2018-07-26T22:48:32.916Z,10.57
2018-07-26T22:51:01.072Z,12.80
2018-07-26T22:53:29.212Z,10.70
2018-07-26T22:55:57.364Z,10.30
2018-07-26T22:58:25.514Z,10.23
2018-07-26T23:00:53.631Z,10.90
2018-07-26T23:03:21.871Z,11.37
2018-07-26T23:05:50.012Z,11.20
2018-07-26T23:08:18.145Z,11.80
2018-07-26T23:10:46.315Z,11.80
2018-07-26T23:13:14.492Z,11.80
2018-07-26T23:15:42.644Z,11.77
2018-07-26T23:18:10.744Z,11.10
2018-07-26T23:20:38.844Z,10.70
2018-07-26T23:23:07.024Z,12.07
2018-07-26T23:25:35.223Z,11.23
2018-07-26T23:28:03.412Z,11.53
2018-07-26T23:30:31.591Z,11.50
2018-07-26T23:32:59.764Z,12.63
2018-07-26T23:35:27.938Z,11.90
2018-07-26T23:37:56.083Z,11.43
2018-07-26T23:40:24.257Z,11.13
2018-07-26T23:42:52.435Z,12.23
2018-07-26T23:45:20.593Z,13.70
2018-07-26T23:47:48.768Z,12.67
2018-07-26T23:50:16.984Z,11.60
2018-07-26T23:52:45.141Z,12.37
2018-07-26T23:55:13.322Z,12.50
2018-07-26T23:57:41.517Z,11.40
